sensor_id;sensor_type;location;lat;lon;timestamp;pressure;altitude;pressure_sealevel;temperature;humidity
60055;BME280;45930;53.514;55.904;2023-03-04T00:00:32;49389.47;;;-149.77;74.75
60055;BME280;45930;53.514;55.904;2023-03-04T00:01:32;49369.66;;;-149.77;74.93
60055;BME280;45930;53.514;55.904;2023-03-04T00:02:33;49373.63;;;-149.77;74.68
60055;BME280;45930;53.514;55.904;2023-03-04T00:03:34;49395.41;;;-149.77;74.58
60055;BME280;45930;53.514;55.904;2023-03-04T00:04:36;49347.88;;;-149.77;74.46
60055;BME280;45930;53.514;55.904;2023-03-04T00:05:37;49395.41;;;-149.77;75.05
60055;BME280;45930;53.514;55.904;2023-03-04T00:06:38;49375.59;;;-149.77;74.89
60055;BME280;45930;53.514;55.904;2023-03-04T00:07:38;49397.41;;;-149.77;74.66
60055;BME280;45930;53.514;55.904;2023-03-04T00:08:39;49373.63;;;-149.77;74.21
60055;BME280;45930;53.514;55.904;2023-03-04T00:09:40;49385.50;;;-149.77;73.69
60055;BME280;45930;53.514;55.904;2023-03-04T00:10:41;49377.59;;;-149.77;74.58
60055;BME280;45930;53.514;55.904;2023-03-04T00:11:42;49385.50;;;-149.77;74.87
60055;BME280;45930;53.514;55.904;2023-03-04T00:12:43;49397.41;;;-149.77;74.69
60055;BME280;45930;53.514;55.904;2023-03-04T00:13:44;49395.41;;;-149.77;74.63
60055;BME280;45930;53.514;55.904;2023-03-04T00:14:45;49369.66;;;-149.77;74.64
60055;BME280;45930;53.514;55.904;2023-03-04T00:15:45;49397.41;;;-149.77;75.01
60055;BME280;45930;53.514;55.904;2023-03-04T00:16:46;49365.69;;;-149.77;75.24
60055;BME280;45930;53.514;55.904;2023-03-04T00:17:48;49389.47;;;-149.77;75.50
60055;BME280;45930;53.514;55.904;2023-03-04T00:18:49;49373.63;;;-149.77;75.61
60055;BME280;45930;53.514;55.904;2023-03-04T00:19:50;49395.41;;;-149.77;75.82
60055;BME280;45930;53.514;55.904;2023-03-04T00:20:51;49397.41;;;-149.77;76.09
60055;BME280;45930;53.514;55.904;2023-03-04T00:21:51;49385.50;;;-149.77;76.19
60055;BME280;45930;53.514;55.904;2023-03-04T00:22:52;49359.75;;;-149.77;75.78
60055;BME280;45930;53.514;55.904;2023-03-04T00:23:53;49383.53;;;-149.77;75.52
60055;BME280;45930;53.514;55.904;2023-03-04T00:24:54;49377.59;;;-149.77;76.09
60055;BME280;45930;53.514;55.904;2023-03-04T00:25:55;49377.59;;;-149.77;76.38
60055;BME280;45930;53.514;55.904;2023-03-04T00:26:55;49377.59;;;-149.77;76.12
60055;BME280;45930;53.514;55.904;2023-03-04T00:27:56;49381.56;;;-149.77;76.24
60055;BME280;45930;53.514;55.904;2023-03-04T00:28:58;49369.66;;;-149.77;76.65
60055;BME280;45930;53.514;55.904;2023-03-04T00:29:58;49363.72;;;-149.77;76.19
60055;BME280;45930;53.514;55.904;2023-03-04T00:30:59;49375.59;;;-149.77;76.28
60055;BME280;45930;53.514;55.904;2023-03-04T00:32:00;49385.50;;;-149.77;76.82
60055;BME280;45930;53.514;55.904;2023-03-04T00:33:00;49361.75;;;-149.77;76.94
60055;BME280;45930;53.514;55.904;2023-03-04T00:34:01;49383.53;;;-149.77;76.96
60055;BME280;45930;53.514;55.904;2023-03-04T00:35:03;49385.50;;;-149.77;77.23
60055;BME280;45930;53.514;55.904;2023-03-04T00:36:04;49385.50;;;-149.77;77.67
60055;BME280;45930;53.514;55.904;2023-03-04T00:37:05;49397.41;;;-149.77;77.63
60055;BME280;45930;53.514;55.904;2023-03-04T00:38:06;49371.66;;;-149.77;78.29
60055;BME280;45930;53.514;55.904;2023-03-04T00:39:06;49369.66;;;-149.77;78.97
60055;BME280;45930;53.514;55.904;2023-03-04T00:40:08;49365.69;;;-149.77;79.07
60055;BME280;45930;53.514;55.904;2023-03-04T00:41:09;49389.47;;;-149.77;79.38
60055;BME280;45930;53.514;55.904;2023-03-04T00:42:10;49391.44;;;-149.77;79.47
60055;BME280;45930;53.514;55.904;2023-03-04T00:43:11;49361.75;;;-149.77;79.91
60055;BME280;45930;53.514;55.904;2023-03-04T00:44:12;49365.69;;;-149.77;80.19
60055;BME280;45930;53.514;55.904;2023-03-04T00:45:12;49365.69;;;-149.77;80.27
60055;BME280;45930;53.514;55.904;2023-03-04T00:46:13;49361.75;;;-149.77;79.70
60055;BME280;45930;53.514;55.904;2023-03-04T00:47:14;49357.78;;;-149.77;80.16
60055;BME280;45930;53.514;55.904;2023-03-04T00:48:15;49399.38;;;-149.77;80.38
60055;BME280;45930;53.514;55.904;2023-03-04T00:49:16;49363.72;;;-149.77;80.01
60055;BME280;45930;53.514;55.904;2023-03-04T00:50:17;49381.56;;;-149.77;80.59
60055;BME280;45930;53.514;55.904;2023-03-04T00:51:17;49377.59;;;-149.77;80.16
60055;BME280;45930;53.514;55.904;2023-03-04T00:52:18;49363.72;;;-149.77;80.11
60055;BME280;45930;53.514;55.904;2023-03-04T00:53:20;49357.78;;;-149.77;80.69
60055;BME280;45930;53.514;55.904;2023-03-04T00:54:20;49381.56;;;-149.77;79.42
60055;BME280;45930;53.514;55.904;2023-03-04T00:55:21;49359.75;;;-149.77;80.26
60055;BME280;45930;53.514;55.904;2023-03-04T00:56:22;49353.81;;;-149.77;80.33
60055;BME280;45930;53.514;55.904;2023-03-04T00:57:23;49357.78;;;-149.77;80.65
60055;BME280;45930;53.514;55.904;2023-03-04T00:58:23;49351.84;;;-149.77;80.72
60055;BME280;45930;53.514;55.904;2023-03-04T00:59:24;49357.78;;;-149.77;80.65
60055;BME280;45930;53.514;55.904;2023-03-04T01:00:25;49381.56;;;-149.77;80.77
60055;BME280;45930;53.514;55.904;2023-03-04T01:01:26;49367.69;;;-149.77;81.25
60055;BME280;45930;53.514;55.904;2023-03-04T01:02:26;49355.78;;;-149.77;81.93
60055;BME280;45930;53.514;55.904;2023-03-04T01:03:27;49365.69;;;-149.77;82.71
60055;BME280;45930;53.514;55.904;2023-03-04T01:04:31;49353.81;;;-149.77;83.09
60055;BME280;45930;53.514;55.904;2023-03-04T01:05:31;49326.09;;;-149.77;83.78
60055;BME280;45930;53.514;55.904;2023-03-04T01:06:35;49341.94;;;-149.77;84.28
60055;BME280;45930;53.514;55.904;2023-03-04T01:07:36;49345.91;;;-149.77;85.18
60055;BME280;45930;53.514;55.904;2023-03-04T01:08:37;49367.69;;;-149.77;85.39
60055;BME280;45930;53.514;55.904;2023-03-04T01:09:38;49320.16;;;-149.77;85.32
60055;BME280;45930;53.514;55.904;2023-03-04T01:10:38;49341.94;;;-149.77;85.59
60055;BME280;45930;53.514;55.904;2023-03-04T01:11:39;49369.66;;;-149.77;85.99
60055;BME280;45930;53.514;55.904;2023-03-04T01:12:41;49337.97;;;-149.77;86.73
60055;BME280;45930;53.514;55.904;2023-03-04T01:13:42;49314.19;;;-149.77;87.84
60055;BME280;45930;53.514;55.904;2023-03-04T01:14:43;49349.84;;;-149.77;87.98
60055;BME280;45930;53.514;55.904;2023-03-04T01:15:43;49361.75;;;-149.77;88.04
60055;BME280;45930;53.514;55.904;2023-03-04T01:16:44;49320.16;;;-149.77;88.17
60055;BME280;45930;53.514;55.904;2023-03-04T01:17:45;49347.88;;;-149.77;87.31
60055;BME280;45930;53.514;55.904;2023-03-04T01:18:46;49314.19;;;-149.77;86.64
60055;BME280;45930;53.514;55.904;2023-03-04T01:19:47;49341.94;;;-149.77;86.07
60055;BME280;45930;53.514;55.904;2023-03-04T01:20:48;49341.94;;;-149.77;85.71
60055;BME280;45930;53.514;55.904;2023-03-04T01:21:48;49324.09;;;-149.77;84.95
60055;BME280;45930;53.514;55.904;2023-03-04T01:22:49;49330.03;;;-149.77;84.96
60055;BME280;45930;53.514;55.904;2023-03-04T01:23:50;49345.91;;;-149.77;84.77
60055;BME280;45930;53.514;55.904;2023-03-04T01:24:51;49343.91;;;-149.77;84.33
60055;BME280;45930;53.514;55.904;2023-03-04T01:25:52;49355.78;;;-149.77;84.17
60055;BME280;45930;53.514;55.904;2023-03-04T01:26:53;49359.75;;;-149.77;84.87
60055;BME280;45930;53.514;55.904;2023-03-04T01:27:53;49339.94;;;-149.77;84.70
60055;BME280;45930;53.514;55.904;2023-03-04T01:28:54;49304.28;;;-149.77;84.60
60055;BME280;45930;53.514;55.904;2023-03-04T01:29:55;49349.84;;;-149.77;84.75
60055;BME280;45930;53.514;55.904;2023-03-04T01:30:56;49351.84;;;-149.77;84.65
60055;BME280;45930;53.514;55.904;2023-03-04T01:31:56;49310.25;;;-149.77;85.06
60055;BME280;45930;53.514;55.904;2023-03-04T01:32:57;49334.00;;;-149.77;84.68
60055;BME280;45930;53.514;55.904;2023-03-04T01:33:58;49322.13;;;-149.77;84.84
60055;BME280;45930;53.514;55.904;2023-03-04T01:34:59;49343.91;;;-149.77;83.68
60055;BME280;45930;53.514;55.904;2023-03-04T01:35:59;49336.00;;;-149.77;84.96
60055;BME280;45930;53.514;55.904;2023-03-04T01:37:01;49341.94;;;-149.77;84.94
60055;BME280;45930;53.514;55.904;2023-03-04T01:38:01;49341.94;;;-149.77;84.94
60055;BME280;45930;53.514;55.904;2023-03-04T01:39:03;49310.25;;;-149.77;85.37
60055;BME280;45930;53.514;55.904;2023-03-04T01:40:04;49341.94;;;-149.77;83.98
60055;BME280;45930;53.514;55.904;2023-03-04T01:41:05;49379.56;;;-149.77;85.38
60055;BME280;45930;53.514;55.904;2023-03-04T01:42:16;49294.41;;;-149.77;86.20
60055;BME280;45930;53.514;55.904;2023-03-04T01:43:21;49347.88;;;-149.77;86.33
60055;BME280;45930;53.514;55.904;2023-03-04T01:44:23;49328.06;;;-149.77;86.57
60055;BME280;45930;53.514;55.904;2023-03-04T01:45:24;49357.78;;;-149.77;87.03
60055;BME280;45930;53.514;55.904;2023-03-04T01:46:25;49351.84;;;-149.77;87.40
60055;BME280;45930;53.514;55.904;2023-03-04T01:47:28;49343.91;;;-149.77;87.61
60055;BME280;45930;53.514;55.904;2023-03-04T01:48:35;49343.91;;;-149.77;87.47
60055;BME280;45930;53.514;55.904;2023-03-04T01:54:21;49347.88;;;-149.77;88.69
60055;BME280;45930;53.514;55.904;2023-03-04T01:55:23;49296.38;;;-149.77;88.89
60055;BME280;45930;53.514;55.904;2023-03-04T01:56:28;49322.13;;;-149.77;89.00
60055;BME280;45930;53.514;55.904;2023-03-04T01:57:34;49318.16;;;-149.77;88.88
60055;BME280;45930;53.514;55.904;2023-03-04T01:58:35;49318.16;;;-149.77;89.03
60055;BME280;45930;53.514;55.904;2023-03-04T01:59:37;49322.13;;;-149.77;89.01
60055;BME280;45930;53.514;55.904;2023-03-04T02:00:38;49332.03;;;-149.77;88.70
60055;BME280;45930;53.514;55.904;2023-03-04T02:01:42;49300.34;;;-149.77;89.88
60055;BME280;45930;53.514;55.904;2023-03-04T02:02:43;49345.91;;;-149.77;90.12
60055;BME280;45930;53.514;55.904;2023-03-04T02:03:44;49332.03;;;-149.77;90.40
60055;BME280;45930;53.514;55.904;2023-03-04T02:04:45;49310.25;;;-149.77;90.77
60055;BME280;45930;53.514;55.904;2023-03-04T02:05:49;49336.00;;;-149.77;91.25
60055;BME280;45930;53.514;55.904;2023-03-04T02:06:51;49345.91;;;-149.77;91.44
60055;BME280;45930;53.514;55.904;2023-03-04T02:07:54;49316.19;;;-149.77;91.63
60055;BME280;45930;53.514;55.904;2023-03-04T02:08:55;49296.38;;;-149.77;93.36
60055;BME280;45930;53.514;55.904;2023-03-04T02:09:56;49278.53;;;-149.77;94.72
60055;BME280;45930;53.514;55.904;2023-03-04T02:10:57;49278.53;;;-149.77;96.04
60055;BME280;45930;53.514;55.904;2023-03-04T02:11:58;49242.91;;;-149.77;96.49
60055;BME280;45930;53.514;55.904;2023-03-04T02:13:00;49278.53;;;-149.77;96.85
60055;BME280;45930;53.514;55.904;2023-03-04T02:14:01;49262.69;;;-149.77;96.98
60055;BME280;45930;53.514;55.904;2023-03-04T02:15:02;49266.66;;;-149.77;97.44
60055;BME280;45930;53.514;55.904;2023-03-04T02:16:06;49256.75;;;-149.77;97.56
60055;BME280;45930;53.514;55.904;2023-03-04T02:17:11;49240.91;;;-149.77;97.99
60055;BME280;45930;53.514;55.904;2023-03-04T02:18:18;49227.03;;;-149.77;98.20
60055;BME280;45930;53.514;55.904;2023-03-04T02:20:59;49234.97;;;-149.77;98.47
60055;BME280;45930;53.514;55.904;2023-03-04T02:22:04;49223.09;;;-149.77;99.17
60055;BME280;45930;53.514;55.904;2023-03-04T02:23:19;49238.94;;;-149.77;99.16
60055;BME280;45930;53.514;55.904;2023-03-04T02:24:30;49234.97;;;-149.77;98.72
60055;BME280;45930;53.514;55.904;2023-03-04T02:27:16;49233.00;;;-149.77;99.23
60055;BME280;45930;53.514;55.904;2023-03-04T02:28:17;49203.28;;;-149.77;100.00
60055;BME280;45930;53.514;55.904;2023-03-04T02:29:18;49191.38;;;-149.77;100.00
60055;BME280;45930;53.514;55.904;2023-03-04T02:30:21;49193.38;;;-149.77;100.00
60055;BME280;45930;53.514;55.904;2023-03-04T02:31:33;49173.56;;;-149.77;100.00
60055;BME280;45930;53.514;55.904;2023-03-04T02:32:34;49197.34;;;-149.77;100.00
60055;BME280;45930;53.514;55.904;2023-03-04T02:33:35;49195.34;;;-149.77;100.00
60055;BME280;45930;53.514;55.904;2023-03-04T02:34:36;49207.25;;;-149.77;98.89
60055;BME280;45930;53.514;55.904;2023-03-04T02:35:38;49227.03;;;-149.77;98.49
60055;BME280;45930;53.514;55.904;2023-03-04T02:36:39;49227.03;;;-149.77;99.22
60055;BME280;45930;53.514;55.904;2023-03-04T02:37:40;49219.13;;;-149.77;99.82
60055;BME280;45930;53.514;55.904;2023-03-04T02:38:41;49238.94;;;-149.77;100.00
60055;BME280;45930;53.514;55.904;2023-03-04T02:39:43;49258.75;;;-149.77;99.10
60055;BME280;45930;53.514;55.904;2023-03-04T02:40:47;49193.38;;;-149.77;100.00
60055;BME280;45930;53.514;55.904;2023-03-04T02:41:52;49171.59;;;-149.77;100.00
60055;BME280;45930;53.514;55.904;2023-03-04T02:42:54;49181.50;;;-149.77;100.00
60055;BME280;45930;53.514;55.904;2023-03-04T02:43:54;49139.91;;;-149.77;100.00
60055;BME280;45930;53.514;55.904;2023-03-04T02:44:59;49133.94;;;-149.77;100.00
60055;BME280;45930;53.514;55.904;2023-03-04T02:46:00;49147.81;;;-149.77;100.00
60055;BME280;45930;53.514;55.904;2023-03-04T02:47:03;49104.25;;;-149.77;100.00
60055;BME280;45930;53.514;55.904;2023-03-04T02:48:05;49084.44;;;-149.77;100.00
60055;BME280;45930;53.514;55.904;2023-03-04T02:49:06;49076.50;;;-149.77;100.00
60055;BME280;45930;53.514;55.904;2023-03-04T02:50:07;49096.31;;;-149.77;100.00
60055;BME280;45930;53.514;55.904;2023-03-04T02:51:08;49088.41;;;-149.77;100.00
60055;BME280;45930;53.514;55.904;2023-03-04T02:52:13;49128.00;;;-149.77;100.00
60055;BME280;45930;53.514;55.904;2023-03-04T02:53:17;49086.41;;;-149.77;100.00
60055;BME280;45930;53.514;55.904;2023-03-04T02:54:21;49084.44;;;-149.77;100.00
60055;BME280;45930;53.514;55.904;2023-03-04T02:55:22;49096.31;;;-149.77;100.00
60055;BME280;45930;53.514;55.904;2023-03-04T02:56:23;49088.41;;;-149.77;100.00
60055;BME280;45930;53.514;55.904;2023-03-04T02:57:23;49100.28;;;-149.77;100.00
60055;BME280;45930;53.514;55.904;2023-03-04T02:58:24;49100.28;;;-149.77;100.00
60055;BME280;45930;53.514;55.904;2023-03-04T02:59:25;49106.22;;;-149.77;100.00
60055;BME280;45930;53.514;55.904;2023-03-04T03:00:26;49122.06;;;-149.77;100.00
60055;BME280;45930;53.514;55.904;2023-03-04T03:01:28;49147.81;;;-149.77;100.00
60055;BME280;45930;53.514;55.904;2023-03-04T03:02:29;49128.00;;;-149.77;100.00
60055;BME280;45930;53.514;55.904;2023-03-04T03:03:30;49143.84;;;-149.77;100.00
60055;BME280;45930;53.514;55.904;2023-03-04T03:04:30;49151.78;;;-149.77;100.00
60055;BME280;45930;53.514;55.904;2023-03-04T03:05:32;49143.84;;;-149.77;100.00
60055;BME280;45930;53.514;55.904;2023-03-04T03:06:34;49131.97;;;-149.77;100.00
60055;BME280;45930;53.514;55.904;2023-03-04T03:07:35;49141.88;;;-149.77;100.00
60055;BME280;45930;53.514;55.904;2023-03-04T03:08:37;49163.66;;;-149.77;100.00
60055;BME280;45930;53.514;55.904;2023-03-04T03:09:38;49169.59;;;-149.77;100.00
60055;BME280;45930;53.514;55.904;2023-03-04T03:10:39;49159.69;;;-149.77;100.00
60055;BME280;45930;53.514;55.904;2023-03-04T03:11:40;49167.63;;;-149.77;100.00
60055;BME280;45930;53.514;55.904;2023-03-04T03:12:40;49187.44;;;-149.77;100.00
60055;BME280;45930;53.514;55.904;2023-03-04T03:13:41;49145.84;;;-149.77;100.00
60055;BME280;45930;53.514;55.904;2023-03-04T03:14:42;49163.66;;;-149.77;100.00
60055;BME280;45930;53.514;55.904;2023-03-04T03:15:43;49167.63;;;-149.77;100.00
60055;BME280;45930;53.514;55.904;2023-03-04T03:16:44;49153.75;;;-149.77;100.00
60055;BME280;45930;53.514;55.904;2023-03-04T03:17:45;49122.06;;;-149.77;100.00
60055;BME280;45930;53.514;55.904;2023-03-04T03:18:46;49201.28;;;-149.77;100.00
60055;BME280;45930;53.514;55.904;2023-03-04T03:19:47;49165.63;;;-149.77;100.00
60055;BME280;45930;53.514;55.904;2023-03-04T03:20:48;49161.69;;;-149.77;100.00
60055;BME280;45930;53.514;55.904;2023-03-04T03:21:48;49143.84;;;-149.77;100.00
60055;BME280;45930;53.514;55.904;2023-03-04T03:22:49;49179.50;;;-149.77;100.00
60055;BME280;45930;53.514;55.904;2023-03-04T03:23:50;49145.84;;;-149.77;100.00
60055;BME280;45930;53.514;55.904;2023-03-04T03:24:51;49159.69;;;-149.77;100.00
60055;BME280;45930;53.514;55.904;2023-03-04T03:25:52;49141.88;;;-149.77;100.00
60055;BME280;45930;53.514;55.904;2023-03-04T03:26:52;49141.88;;;-149.77;100.00
60055;BME280;45930;53.514;55.904;2023-03-04T03:27:53;49139.91;;;-149.77;100.00
60055;BME280;45930;53.514;55.904;2023-03-04T03:28:54;49149.78;;;-149.77;100.00
60055;BME280;45930;53.514;55.904;2023-03-04T03:29:55;49147.81;;;-149.77;100.00
60055;BME280;45930;53.514;55.904;2023-03-04T03:30:56;49137.91;;;-149.77;100.00
60055;BME280;45930;53.514;55.904;2023-03-04T03:31:56;49153.75;;;-149.77;100.00
60055;BME280;45930;53.514;55.904;2023-03-04T03:32:57;49153.75;;;-149.77;100.00
60055;BME280;45930;53.514;55.904;2023-03-04T03:33:58;49128.00;;;-149.77;100.00
60055;BME280;45930;53.514;55.904;2023-03-04T03:34:59;49145.84;;;-149.77;100.00
60055;BME280;45930;53.514;55.904;2023-03-04T03:35:59;49153.75;;;-149.77;100.00
60055;BME280;45930;53.514;55.904;2023-03-04T03:37:01;49131.97;;;-149.77;100.00
60055;BME280;45930;53.514;55.904;2023-03-04T03:38:01;49149.78;;;-149.77;100.00
60055;BME280;45930;53.514;55.904;2023-03-04T03:39:02;49151.78;;;-149.77;100.00
60055;BME280;45930;53.514;55.904;2023-03-04T03:40:04;49187.44;;;-149.77;100.00
60055;BME280;45930;53.514;55.904;2023-03-04T03:41:05;49155.75;;;-149.77;100.00
60055;BME280;45930;53.514;55.904;2023-03-04T03:42:05;49177.53;;;-149.77;100.00
60055;BME280;45930;53.514;55.904;2023-03-04T03:43:06;49167.63;;;-149.77;100.00
60055;BME280;45930;53.514;55.904;2023-03-04T03:44:07;49175.53;;;-149.77;100.00
60055;BME280;45930;53.514;55.904;2023-03-04T03:45:08;49157.72;;;-149.77;100.00
60055;BME280;45930;53.514;55.904;2023-03-04T03:46:09;49157.72;;;-149.77;100.00
60055;BME280;45930;53.514;55.904;2023-03-04T03:47:10;49171.59;;;-149.77;100.00
60055;BME280;45930;53.514;55.904;2023-03-04T03:48:11;49163.66;;;-149.77;100.00
60055;BME280;45930;53.514;55.904;2023-03-04T03:49:12;49193.38;;;-149.77;100.00
60055;BME280;45930;53.514;55.904;2023-03-04T03:50:12;49201.28;;;-149.77;100.00
60055;BME280;45930;53.514;55.904;2023-03-04T03:51:13;49163.66;;;-149.77;100.00
60055;BME280;45930;53.514;55.904;2023-03-04T03:52:14;49177.53;;;-149.77;99.97
60055;BME280;45930;53.514;55.904;2023-03-04T03:53:17;49131.97;;;-149.77;100.00
60055;BME280;45930;53.514;55.904;2023-03-04T03:54:18;49181.50;;;-149.77;99.94
60055;BME280;45930;53.514;55.904;2023-03-04T03:55:19;49203.28;;;-149.77;99.17
60055;BME280;45930;53.514;55.904;2023-03-04T03:56:20;49187.44;;;-149.77;99.81
60055;BME280;45930;53.514;55.904;2023-03-04T03:57:21;49187.44;;;-149.77;98.05
60055;BME280;45930;53.514;55.904;2023-03-04T03:58:22;49205.25;;;-149.77;98.17
60055;BME280;45930;53.514;55.904;2023-03-04T03:59:23;49187.44;;;-149.77;99.29
60055;BME280;45930;53.514;55.904;2023-03-04T04:00:23;49183.47;;;-149.77;98.44
60055;BME280;45930;53.514;55.904;2023-03-04T04:01:24;49187.44;;;-149.77;98.38
60055;BME280;45930;53.514;55.904;2023-03-04T04:02:25;49201.28;;;-149.77;97.11
60055;BME280;45930;53.514;55.904;2023-03-04T04:03:26;49185.44;;;-149.77;96.65
60055;BME280;45930;53.514;55.904;2023-03-04T04:04:26;49201.28;;;-149.77;96.66
60055;BME280;45930;53.514;55.904;2023-03-04T04:05:27;49219.13;;;-149.77;96.19
60055;BME280;45930;53.514;55.904;2023-03-04T04:06:28;49219.13;;;-149.77;95.58
60055;BME280;45930;53.514;55.904;2023-03-04T04:07:29;49211.19;;;-149.77;96.00
60055;BME280;45930;53.514;55.904;2023-03-04T04:08:30;49250.81;;;-149.77;94.90
60055;BME280;45930;53.514;55.904;2023-03-04T04:09:30;49215.16;;;-149.77;94.44
60055;BME280;45930;53.514;55.904;2023-03-04T04:10:31;49225.06;;;-149.77;94.15
60055;BME280;45930;53.514;55.904;2023-03-04T04:11:32;49231.00;;;-149.77;93.70
60055;BME280;45930;53.514;55.904;2023-03-04T04:12:33;49221.09;;;-149.77;93.44
60055;BME280;45930;53.514;55.904;2023-03-04T04:13:34;49227.03;;;-149.77;92.15
60055;BME280;45930;53.514;55.904;2023-03-04T04:14:35;49250.81;;;-149.77;92.20
60055;BME280;45930;53.514;55.904;2023-03-04T04:15:35;49233.00;;;-149.77;92.47
60055;BME280;45930;53.514;55.904;2023-03-04T04:16:38;49231.00;;;-149.77;92.85
60055;BME280;45930;53.514;55.904;2023-03-04T04:17:39;49264.69;;;-149.77;91.70
60055;BME280;45930;53.514;55.904;2023-03-04T04:18:39;49262.69;;;-149.77;90.78
60055;BME280;45930;53.514;55.904;2023-03-04T04:19:40;49250.81;;;-149.77;92.36
60055;BME280;45930;53.514;55.904;2023-03-04T04:20:41;49242.91;;;-149.77;93.33
60055;BME280;45930;53.514;55.904;2023-03-04T04:21:42;49246.84;;;-149.77;93.64
60055;BME280;45930;53.514;55.904;2023-03-04T04:22:42;49270.63;;;-149.77;92.90
60055;BME280;45930;53.514;55.904;2023-03-04T04:23:43;49234.97;;;-149.77;93.32
60055;BME280;45930;53.514;55.904;2023-03-04T04:24:44;49254.78;;;-149.77;94.56
60055;BME280;45930;53.514;55.904;2023-03-04T04:25:45;49229.03;;;-149.77;94.40
60055;BME280;45930;53.514;55.904;2023-03-04T04:26:46;49246.84;;;-149.77;94.16
60055;BME280;45930;53.514;55.904;2023-03-04T04:27:47;49242.91;;;-149.77;94.16
60055;BME280;45930;53.514;55.904;2023-03-04T04:28:48;49240.91;;;-149.77;93.51
60055;BME280;45930;53.514;55.904;2023-03-04T04:29:49;49231.00;;;-149.77;93.30
60055;BME280;45930;53.514;55.904;2023-03-04T04:30:50;49246.84;;;-149.77;92.92
60055;BME280;45930;53.514;55.904;2023-03-04T04:31:51;49286.47;;;-149.77;92.58
60055;BME280;45930;53.514;55.904;2023-03-04T04:32:51;49231.00;;;-149.77;92.14
60055;BME280;45930;53.514;55.904;2023-03-04T04:33:52;49254.78;;;-149.77;91.25
60055;BME280;45930;53.514;55.904;2023-03-04T04:34:53;49246.84;;;-149.77;90.67
60055;BME280;45930;53.514;55.904;2023-03-04T04:35:54;49236.94;;;-149.77;91.04
60055;BME280;45930;53.514;55.904;2023-03-04T04:36:55;49234.97;;;-149.77;90.32
60055;BME280;45930;53.514;55.904;2023-03-04T04:37:55;49254.78;;;-149.77;90.14
60055;BME280;45930;53.514;55.904;2023-03-04T04:38:56;49250.81;;;-149.77;89.34
60055;BME280;45930;53.514;55.904;2023-03-04T04:39:57;49233.00;;;-149.77;89.24
60055;BME280;45930;53.514;55.904;2023-03-04T04:40:58;49233.00;;;-149.77;87.98
60055;BME280;45930;53.514;55.904;2023-03-04T04:41:59;49238.94;;;-149.77;88.13
60055;BME280;45930;53.514;55.904;2023-03-04T04:43:00;49266.66;;;-149.77;88.18
60055;BME280;45930;53.514;55.904;2023-03-04T04:44:01;49266.66;;;-149.77;87.38
60055;BME280;45930;53.514;55.904;2023-03-04T04:45:02;49270.63;;;-149.77;87.00
60055;BME280;45930;53.514;55.904;2023-03-04T04:46:04;49254.78;;;-149.77;85.66
60055;BME280;45930;53.514;55.904;2023-03-04T04:47:05;49250.81;;;-149.77;85.54
60055;BME280;45930;53.514;55.904;2023-03-04T04:48:06;49268.63;;;-149.77;85.16
60055;BME280;45930;53.514;55.904;2023-03-04T04:49:08;49252.78;;;-149.77;84.23
60055;BME280;45930;53.514;55.904;2023-03-04T04:50:10;49256.75;;;-149.77;81.81
60055;BME280;45930;53.514;55.904;2023-03-04T04:51:11;49280.53;;;-149.77;84.92
60055;BME280;45930;53.514;55.904;2023-03-04T04:52:12;49272.59;;;-149.77;85.38
60055;BME280;45930;53.514;55.904;2023-03-04T04:53:12;49282.50;;;-149.77;85.79
60055;BME280;45930;53.514;55.904;2023-03-04T04:54:14;49282.50;;;-149.77;85.34
60055;BME280;45930;53.514;55.904;2023-03-04T04:55:15;49280.53;;;-149.77;84.70
60055;BME280;45930;53.514;55.904;2023-03-04T04:56:18;49266.66;;;-149.77;84.42
60055;BME280;45930;53.514;55.904;2023-03-04T04:57:20;49256.75;;;-149.77;84.05
60055;BME280;45930;53.514;55.904;2023-03-04T04:58:20;49282.50;;;-149.77;83.27
60055;BME280;45930;53.514;55.904;2023-03-04T04:59:21;49242.91;;;-149.77;83.57
60055;BME280;45930;53.514;55.904;2023-03-04T05:00:22;49284.50;;;-149.77;81.84
60055;BME280;45930;53.514;55.904;2023-03-04T05:01:24;49270.63;;;-149.77;83.33
60055;BME280;45930;53.514;55.904;2023-03-04T05:02:25;49284.50;;;-149.77;83.89
60055;BME280;45930;53.514;55.904;2023-03-04T05:03:26;49314.19;;;-149.77;86.12
60055;BME280;45930;53.514;55.904;2023-03-04T05:04:27;49266.66;;;-149.77;86.26
60055;BME280;45930;53.514;55.904;2023-03-04T05:05:27;49246.84;;;-149.77;87.22
60055;BME280;45930;53.514;55.904;2023-03-04T05:06:28;49272.59;;;-149.77;86.60
60055;BME280;45930;53.514;55.904;2023-03-04T05:07:29;49286.47;;;-149.77;88.30
60055;BME280;45930;53.514;55.904;2023-03-04T05:08:30;49268.63;;;-149.77;90.97
60055;BME280;45930;53.514;55.904;2023-03-04T05:09:31;49264.69;;;-149.77;90.35
60055;BME280;45930;53.514;55.904;2023-03-04T05:10:32;49234.97;;;-149.77;90.22
60055;BME280;45930;53.514;55.904;2023-03-04T05:11:33;49268.63;;;-149.77;91.93
60055;BME280;45930;53.514;55.904;2023-03-04T05:12:33;49254.78;;;-149.77;93.46
60055;BME280;45930;53.514;55.904;2023-03-04T05:13:34;49238.94;;;-149.77;92.15
60055;BME280;45930;53.514;55.904;2023-03-04T05:14:35;49276.56;;;-149.77;89.81
60055;BME280;45930;53.514;55.904;2023-03-04T05:15:37;49276.56;;;-149.77;89.99
60055;BME280;45930;53.514;55.904;2023-03-04T05:16:38;49256.75;;;-149.77;90.54
60055;BME280;45930;53.514;55.904;2023-03-04T05:17:39;49268.63;;;-149.77;90.48
60055;BME280;45930;53.514;55.904;2023-03-04T05:18:40;49262.69;;;-149.77;88.08
60055;BME280;45930;53.514;55.904;2023-03-04T05:19:41;49274.59;;;-149.77;88.96